sensor_id;sensor_type;location;lat;lon;timestamp;P1;durP1;ratioP1;P2;durP2;ratioP2
18695;SDS011;22617;43.690;27.956;2022-10-16T00:04:46;8.17;;;5.10;;
18695;SDS011;22617;43.690;27.956;2022-10-16T00:09:49;10.50;;;5.80;;
18695;SDS011;22617;43.690;27.956;2022-10-16T00:14:53;7.90;;;5.40;;
18695;SDS011;22617;43.690;27.956;2022-10-16T00:19:58;8.07;;;5.00;;
18695;SDS011;22617;43.690;27.956;2022-10-16T00:25:20;8.77;;;4.70;;
18695;SDS011;22617;43.690;27.956;2022-10-16T00:30:23;6.33;;;4.30;;
18695;SDS011;22617;43.690;27.956;2022-10-16T00:35:30;10.13;;;5.17;;
18695;SDS011;22617;43.690;27.956;2022-10-16T00:40:34;6.77;;;5.13;;
18695;SDS011;22617;43.690;27.956;2022-10-16T00:45:37;10.90;;;5.80;;
18695;SDS011;22617;43.690;27.956;2022-10-16T00:50:42;7.40;;;5.77;;
18695;SDS011;22617;43.690;27.956;2022-10-16T00:55:45;6.83;;;5.20;;
18695;SDS011;22617;43.690;27.956;2022-10-16T01:00:49;9.17;;;5.80;;
18695;SDS011;22617;43.690;27.956;2022-10-16T01:05:56;7.87;;;5.13;;
18695;SDS011;22617;43.690;27.956;2022-10-16T01:11:11;7.77;;;5.03;;
18695;SDS011;22617;43.690;27.956;2022-10-16T01:16:21;15.40;;;8.77;;
18695;SDS011;22617;43.690;27.956;2022-10-16T01:21:36;15.80;;;8.83;;
18695;SDS011;22617;43.690;27.956;2022-10-16T01:26:48;11.40;;;7.53;;
18695;SDS011;22617;43.690;27.956;2022-10-16T01:32:05;17.07;;;9.50;;
18695;SDS011;22617;43.690;27.956;2022-10-16T01:37:15;18.87;;;10.97;;
18695;SDS011;22617;43.690;27.956;2022-10-16T01:42:24;18.17;;;9.13;;
18695;SDS011;22617;43.690;27.956;2022-10-16T01:47:33;12.27;;;7.30;;
18695;SDS011;22617;43.690;27.956;2022-10-16T01:52:39;12.37;;;6.83;;
18695;SDS011;22617;43.690;27.956;2022-10-16T01:57:48;11.70;;;6.80;;
18695;SDS011;22617;43.690;27.956;2022-10-16T02:02:54;12.17;;;6.60;;
18695;SDS011;22617;43.690;27.956;2022-10-16T02:08:01;9.63;;;7.10;;
18695;SDS011;22617;43.690;27.956;2022-10-16T02:13:09;14.87;;;8.17;;
18695;SDS011;22617;43.690;27.956;2022-10-16T02:18:34;19.10;;;9.90;;
18695;SDS011;22617;43.690;27.956;2022-10-16T02:23:40;17.03;;;9.53;;
18695;SDS011;22617;43.690;27.956;2022-10-16T02:28:53;12.90;;;8.60;;
18695;SDS011;22617;43.690;27.956;2022-10-16T02:34:02;16.17;;;9.17;;
18695;SDS011;22617;43.690;27.956;2022-10-16T02:39:09;18.07;;;10.70;;
18695;SDS011;22617;43.690;27.956;2022-10-16T02:44:15;16.43;;;9.73;;
18695;SDS011;22617;43.690;27.956;2022-10-16T02:49:18;21.50;;;10.60;;
18695;SDS011;22617;43.690;27.956;2022-10-16T02:54:22;14.23;;;8.07;;
18695;SDS011;22617;43.690;27.956;2022-10-16T02:59:27;11.33;;;7.33;;
18695;SDS011;22617;43.690;27.956;2022-10-16T03:04:30;14.47;;;7.73;;
18695;SDS011;22617;43.690;27.956;2022-10-16T03:09:33;13.17;;;7.40;;
18695;SDS011;22617;43.690;27.956;2022-10-16T03:14:38;12.67;;;7.47;;
18695;SDS011;22617;43.690;27.956;2022-10-16T03:19:42;10.00;;;7.00;;
18695;SDS011;22617;43.690;27.956;2022-10-16T03:24:45;11.10;;;7.10;;
18695;SDS011;22617;43.690;27.956;2022-10-16T03:29:50;12.43;;;7.40;;
18695;SDS011;22617;43.690;27.956;2022-10-16T03:34:54;22.43;;;11.43;;
18695;SDS011;22617;43.690;27.956;2022-10-16T03:39:58;17.80;;;9.47;;
18695;SDS011;22617;43.690;27.956;2022-10-16T03:45:05;17.57;;;9.07;;
18695;SDS011;22617;43.690;27.956;2022-10-16T03:50:09;13.87;;;7.30;;
18695;SDS011;22617;43.690;27.956;2022-10-16T03:55:13;12.23;;;7.23;;
18695;SDS011;22617;43.690;27.956;2022-10-16T04:00:18;11.63;;;6.43;;
18695;SDS011;22617;43.690;27.956;2022-10-16T04:05:21;12.97;;;6.63;;
18695;SDS011;22617;43.690;27.956;2022-10-16T04:10:24;11.10;;;6.90;;
18695;SDS011;22617;43.690;27.956;2022-10-16T04:15:29;13.70;;;7.40;;
18695;SDS011;22617;43.690;27.956;2022-10-16T04:20:33;11.67;;;6.30;;
18695;SDS011;22617;43.690;27.956;2022-10-16T04:25:37;9.80;;;6.80;;
18695;SDS011;22617;43.690;27.956;2022-10-16T04:30:41;8.47;;;6.67;;
18695;SDS011;22617;43.690;27.956;2022-10-16T04:35:45;11.50;;;6.60;;
18695;SDS011;22617;43.690;27.956;2022-10-16T04:40:48;10.40;;;5.93;;
18695;SDS011;22617;43.690;27.956;2022-10-16T04:45:53;10.60;;;6.33;;
18695;SDS011;22617;43.690;27.956;2022-10-16T04:50:58;11.70;;;6.90;;
18695;SDS011;22617;43.690;27.956;2022-10-16T04:56:01;10.00;;;7.03;;
18695;SDS011;22617;43.690;27.956;2022-10-16T05:01:06;11.20;;;5.87;;
18695;SDS011;22617;43.690;27.956;2022-10-16T05:06:09;9.97;;;6.30;;
18695;SDS011;22617;43.690;27.956;2022-10-16T05:11:13;9.20;;;6.00;;
18695;SDS011;22617;43.690;27.956;2022-10-16T05:16:18;9.70;;;5.67;;
18695;SDS011;22617;43.690;27.956;2022-10-16T05:21:21;13.47;;;6.50;;
18695;SDS011;22617;43.690;27.956;2022-10-16T05:26:25;9.87;;;5.93;;
18695;SDS011;22617;43.690;27.956;2022-10-16T05:31:30;9.83;;;6.10;;
18695;SDS011;22617;43.690;27.956;2022-10-16T05:36:34;11.77;;;6.23;;
18695;SDS011;22617;43.690;27.956;2022-10-16T05:41:37;64.20;;;22.43;;
18695;SDS011;22617;43.690;27.956;2022-10-16T05:46:42;32.53;;;13.17;;
18695;SDS011;22617;43.690;27.956;2022-10-16T05:51:46;12.37;;;6.40;;
18695;SDS011;22617;43.690;27.956;2022-10-16T05:56:49;12.63;;;6.70;;
18695;SDS011;22617;43.690;27.956;2022-10-16T06:01:54;12.20;;;7.47;;
18695;SDS011;22617;43.690;27.956;2022-10-16T06:06:58;11.47;;;7.17;;
18695;SDS011;22617;43.690;27.956;2022-10-16T06:12:03;12.47;;;7.20;;
18695;SDS011;22617;43.690;27.956;2022-10-16T06:17:08;10.63;;;6.70;;
18695;SDS011;22617;43.690;27.956;2022-10-16T06:22:11;11.30;;;5.27;;
18695;SDS011;22617;43.690;27.956;2022-10-16T06:27:15;11.37;;;5.37;;
18695;SDS011;22617;43.690;27.956;2022-10-16T06:32:19;15.97;;;6.50;;
18695;SDS011;22617;43.690;27.956;2022-10-16T06:37:23;10.60;;;4.90;;
18695;SDS011;22617;43.690;27.956;2022-10-16T06:42:27;8.97;;;5.17;;
18695;SDS011;22617;43.690;27.956;2022-10-16T06:47:32;11.03;;;4.40;;
18695;SDS011;22617;43.690;27.956;2022-10-16T06:52:35;8.13;;;3.50;;
18695;SDS011;22617;43.690;27.956;2022-10-16T06:57:39;14.93;;;5.13;;
18695;SDS011;22617;43.690;27.956;2022-10-16T07:02:43;9.37;;;3.73;;
18695;SDS011;22617;43.690;27.956;2022-10-16T07:07:47;6.97;;;3.40;;
18695;SDS011;22617;43.690;27.956;2022-10-16T07:12:50;9.47;;;4.60;;
18695;SDS011;22617;43.690;27.956;2022-10-16T07:17:55;8.73;;;3.50;;
18695;SDS011;22617;43.690;27.956;2022-10-16T07:22:59;8.47;;;2.90;;
18695;SDS011;22617;43.690;27.956;2022-10-16T07:28:02;5.30;;;2.80;;
18695;SDS011;22617;43.690;27.956;2022-10-16T07:33:08;14.47;;;3.60;;
18695;SDS011;22617;43.690;27.956;2022-10-16T07:38:11;5.07;;;2.37;;
18695;SDS011;22617;43.690;27.956;2022-10-16T07:43:14;4.93;;;2.60;;
18695;SDS011;22617;43.690;27.956;2022-10-16T07:48:19;5.53;;;2.53;;
18695;SDS011;22617;43.690;27.956;2022-10-16T07:53:23;8.27;;;2.60;;
18695;SDS011;22617;43.690;27.956;2022-10-16T07:58:27;7.53;;;2.80;;
18695;SDS011;22617;43.690;27.956;2022-10-16T08:03:32;5.40;;;2.40;;
18695;SDS011;22617;43.690;27.956;2022-10-16T08:08:36;3.37;;;2.17;;
18695;SDS011;22617;43.690;27.956;2022-10-16T08:13:40;6.70;;;2.90;;
18695;SDS011;22617;43.690;27.956;2022-10-16T08:18:44;7.83;;;2.70;;
18695;SDS011;22617;43.690;27.956;2022-10-16T08:23:49;5.93;;;2.60;;
18695;SDS011;22617;43.690;27.956;2022-10-16T08:28:59;10.83;;;3.07;;
18695;SDS011;22617;43.690;27.956;2022-10-16T08:34:04;9.70;;;2.60;;
18695;SDS011;22617;43.690;27.956;2022-10-16T08:39:07;4.27;;;2.60;;
18695;SDS011;22617;43.690;27.956;2022-10-16T08:44:18;6.37;;;2.60;;
18695;SDS011;22617;43.690;27.956;2022-10-16T08:49:34;4.90;;;2.37;;
18695;SDS011;22617;43.690;27.956;2022-10-16T08:54:41;8.37;;;2.53;;
18695;SDS011;22617;43.690;27.956;2022-10-16T08:59:46;4.40;;;2.50;;
18695;SDS011;22617;43.690;27.956;2022-10-16T09:04:54;5.03;;;2.13;;
18695;SDS011;22617;43.690;27.956;2022-10-16T09:10:09;7.10;;;2.60;;
18695;SDS011;22617;43.690;27.956;2022-10-16T09:15:24;5.37;;;2.30;;
18695;SDS011;22617;43.690;27.956;2022-10-16T09:20:38;5.53;;;2.57;;
18695;SDS011;22617;43.690;27.956;2022-10-16T09:25:48;6.73;;;2.27;;
18695;SDS011;22617;43.690;27.956;2022-10-16T09:30:52;6.90;;;2.78;;
18695;SDS011;22617;43.690;27.956;2022-10-16T09:35:57;5.88;;;2.65;;
18695;SDS011;22617;43.690;27.956;2022-10-16T09:41:02;10.43;;;2.60;;
18695;SDS011;22617;43.690;27.956;2022-10-16T09:46:24;5.60;;;2.40;;
18695;SDS011;22617;43.690;27.956;2022-10-16T09:51:32;7.90;;;2.88;;
18695;SDS011;22617;43.690;27.956;2022-10-16T09:56:37;5.23;;;2.73;;
18695;SDS011;22617;43.690;27.956;2022-10-16T10:01:43;5.88;;;2.72;;
18695;SDS011;22617;43.690;27.956;2022-10-16T10:06:51;5.18;;;2.40;;
18695;SDS011;22617;43.690;27.956;2022-10-16T10:11:57;7.35;;;2.67;;
18695;SDS011;22617;43.690;27.956;2022-10-16T10:17:09;6.53;;;2.70;;
18695;SDS011;22617;43.690;27.956;2022-10-16T10:22:21;6.00;;;2.95;;
18695;SDS011;22617;43.690;27.956;2022-10-16T10:27:30;3.83;;;2.60;;
18695;SDS011;22617;43.690;27.956;2022-10-16T10:32:43;4.80;;;2.70;;
18695;SDS011;22617;43.690;27.956;2022-10-16T10:38:02;9.85;;;2.70;;
18695;SDS011;22617;43.690;27.956;2022-10-16T10:43:19;4.60;;;2.58;;
18695;SDS011;22617;43.690;27.956;2022-10-16T10:48:43;6.43;;;2.40;;
18695;SDS011;22617;43.690;27.956;2022-10-16T10:54:00;3.63;;;2.00;;
18695;SDS011;22617;43.690;27.956;2022-10-16T10:59:18;6.53;;;2.50;;
18695;SDS011;22617;43.690;27.956;2022-10-16T11:04:41;7.78;;;3.05;;
18695;SDS011;22617;43.690;27.956;2022-10-16T11:10:13;4.57;;;2.08;;
18695;SDS011;22617;43.690;27.956;2022-10-16T11:15:23;7.20;;;2.40;;
18695;SDS011;22617;43.690;27.956;2022-10-16T11:20:32;7.63;;;2.38;;
18695;SDS011;22617;43.690;27.956;2022-10-16T11:25:39;4.32;;;1.90;;
18695;SDS011;22617;43.690;27.956;2022-10-16T11:30:44;3.90;;;2.05;;
18695;SDS011;22617;43.690;27.956;2022-10-16T11:35:53;4.78;;;2.03;;
18695;SDS011;22617;43.690;27.956;2022-10-16T11:41:10;6.90;;;2.10;;
18695;SDS011;22617;43.690;27.956;2022-10-16T11:46:20;7.80;;;2.70;;
18695;SDS011;22617;43.690;27.956;2022-10-16T11:51:29;6.95;;;2.00;;
18695;SDS011;22617;43.690;27.956;2022-10-16T11:56:40;3.75;;;1.90;;
18695;SDS011;22617;43.690;27.956;2022-10-16T12:01:47;5.97;;;1.90;;
18695;SDS011;22617;43.690;27.956;2022-10-16T12:06:56;7.63;;;2.25;;
18695;SDS011;22617;43.690;27.956;2022-10-16T12:17:36;6.00;;;2.08;;
18695;SDS011;22617;43.690;27.956;2022-10-16T12:22:41;5.57;;;2.00;;
18695;SDS011;22617;43.690;27.956;2022-10-16T12:27:57;6.35;;;2.00;;
18695;SDS011;22617;43.690;27.956;2022-10-16T12:33:03;3.55;;;1.90;;
18695;SDS011;22617;43.690;27.956;2022-10-16T12:38:15;8.52;;;3.50;;
18695;SDS011;22617;43.690;27.956;2022-10-16T12:43:26;5.75;;;2.50;;
18695;SDS011;22617;43.690;27.956;2022-10-16T12:48:39;5.03;;;1.80;;
18695;SDS011;22617;43.690;27.956;2022-10-16T12:54:03;4.80;;;2.20;;
18695;SDS011;22617;43.690;27.956;2022-10-16T12:59:11;4.22;;;2.20;;
18695;SDS011;22617;43.690;27.956;2022-10-16T13:04:29;6.50;;;1.80;;
18695;SDS011;22617;43.690;27.956;2022-10-16T13:09:53;2.83;;;1.70;;
18695;SDS011;22617;43.690;27.956;2022-10-16T13:15:19;4.50;;;2.20;;
18695;SDS011;22617;43.690;27.956;2022-10-16T13:20:31;7.68;;;2.03;;
18695;SDS011;22617;43.690;27.956;2022-10-16T13:25:42;5.93;;;1.87;;
18695;SDS011;22617;43.690;27.956;2022-10-16T13:30:54;3.75;;;2.00;;
18695;SDS011;22617;43.690;27.956;2022-10-16T13:36:00;5.83;;;2.00;;
18695;SDS011;22617;43.690;27.956;2022-10-16T13:41:04;4.07;;;2.10;;
18695;SDS011;22617;43.690;27.956;2022-10-16T13:46:13;3.40;;;2.03;;
18695;SDS011;22617;43.690;27.956;2022-10-16T13:51:17;6.55;;;2.33;;
18695;SDS011;22617;43.690;27.956;2022-10-16T13:56:22;4.43;;;2.20;;
18695;SDS011;22617;43.690;27.956;2022-10-16T14:01:30;4.05;;;2.10;;
18695;SDS011;22617;43.690;27.956;2022-10-16T14:06:36;4.93;;;1.90;;
18695;SDS011;22617;43.690;27.956;2022-10-16T14:11:45;5.37;;;2.17;;
18695;SDS011;22617;43.690;27.956;2022-10-16T14:16:54;3.50;;;2.03;;
18695;SDS011;22617;43.690;27.956;2022-10-16T14:21:59;8.50;;;2.27;;
18695;SDS011;22617;43.690;27.956;2022-10-16T14:32:32;5.93;;;2.23;;
18695;SDS011;22617;43.690;27.956;2022-10-16T14:37:36;5.10;;;2.13;;
18695;SDS011;22617;43.690;27.956;2022-10-16T14:42:39;5.10;;;2.10;;
18695;SDS011;22617;43.690;27.956;2022-10-16T14:47:49;3.97;;;2.10;;
18695;SDS011;22617;43.690;27.956;2022-10-16T14:52:54;7.43;;;2.33;;
18695;SDS011;22617;43.690;27.956;2022-10-16T14:57:58;6.80;;;2.00;;
18695;SDS011;22617;43.690;27.956;2022-10-16T15:03:03;3.00;;;2.20;;
18695;SDS011;22617;43.690;27.956;2022-10-16T15:08:06;9.27;;;2.20;;
18695;SDS011;22617;43.690;27.956;2022-10-16T15:13:11;3.97;;;2.17;;
18695;SDS011;22617;43.690;27.956;2022-10-16T15:18:16;5.70;;;2.40;;
18695;SDS011;22617;43.690;27.956;2022-10-16T15:23:22;5.90;;;2.30;;
18695;SDS011;22617;43.690;27.956;2022-10-16T15:28:30;7.23;;;4.03;;
18695;SDS011;22617;43.690;27.956;2022-10-16T15:33:35;11.23;;;4.50;;
18695;SDS011;22617;43.690;27.956;2022-10-16T15:38:40;8.00;;;3.13;;
18695;SDS011;22617;43.690;27.956;2022-10-16T15:43:44;6.83;;;3.50;;
18695;SDS011;22617;43.690;27.956;2022-10-16T15:48:51;8.07;;;3.70;;
18695;SDS011;22617;43.690;27.956;2022-10-16T15:54:00;6.80;;;3.83;;
18695;SDS011;22617;43.690;27.956;2022-10-16T15:59:04;10.27;;;3.50;;
18695;SDS011;22617;43.690;27.956;2022-10-16T16:04:10;6.93;;;4.73;;
18695;SDS011;22617;43.690;27.956;2022-10-16T16:09:33;7.20;;;3.83;;
18695;SDS011;22617;43.690;27.956;2022-10-16T16:14:37;6.00;;;3.60;;
18695;SDS011;22617;43.690;27.956;2022-10-16T16:19:42;6.57;;;3.50;;
18695;SDS011;22617;43.690;27.956;2022-10-16T16:24:45;7.40;;;3.40;;
18695;SDS011;22617;43.690;27.956;2022-10-16T16:29:49;4.53;;;3.20;;
18695;SDS011;22617;43.690;27.956;2022-10-16T16:34:54;5.63;;;3.37;;
18695;SDS011;22617;43.690;27.956;2022-10-16T16:39:57;4.93;;;2.57;;
18695;SDS011;22617;43.690;27.956;2022-10-16T16:45:01;6.60;;;3.10;;
18695;SDS011;22617;43.690;27.956;2022-10-16T16:50:06;8.03;;;3.60;;
18695;SDS011;22617;43.690;27.956;2022-10-16T16:55:10;6.90;;;3.60;;
18695;SDS011;22617;43.690;27.956;2022-10-16T17:00:13;5.37;;;3.37;;
18695;SDS011;22617;43.690;27.956;2022-10-16T17:05:19;7.70;;;3.60;;
18695;SDS011;22617;43.690;27.956;2022-10-16T17:10:22;4.97;;;3.33;;
18695;SDS011;22617;43.690;27.956;2022-10-16T17:15:26;4.77;;;2.93;;
18695;SDS011;22617;43.690;27.956;2022-10-16T17:20:31;15.20;;;7.63;;
18695;SDS011;22617;43.690;27.956;2022-10-16T17:25:38;18.33;;;9.47;;
18695;SDS011;22617;43.690;27.956;2022-10-16T17:30:43;18.57;;;8.23;;
18695;SDS011;22617;43.690;27.956;2022-10-16T17:35:48;28.33;;;11.00;;
18695;SDS011;22617;43.690;27.956;2022-10-16T17:40:52;35.00;;;11.63;;
18695;SDS011;22617;43.690;27.956;2022-10-16T17:45:55;33.47;;;12.60;;
18695;SDS011;22617;43.690;27.956;2022-10-16T17:51:00;24.97;;;9.93;;
18695;SDS011;22617;43.690;27.956;2022-10-16T17:56:06;21.03;;;9.43;;
18695;SDS011;22617;43.690;27.956;2022-10-16T18:01:11;20.03;;;8.13;;
18695;SDS011;22617;43.690;27.956;2022-10-16T18:06:17;14.27;;;6.57;;
18695;SDS011;22617;43.690;27.956;2022-10-16T18:11:24;15.03;;;6.80;;
18695;SDS011;22617;43.690;27.956;2022-10-16T18:16:29;18.27;;;7.37;;
18695;SDS011;22617;43.690;27.956;2022-10-16T18:21:34;12.27;;;6.27;;
18695;SDS011;22617;43.690;27.956;2022-10-16T18:26:38;24.33;;;8.87;;
18695;SDS011;22617;43.690;27.956;2022-10-16T18:31:41;32.40;;;11.13;;
18695;SDS011;22617;43.690;27.956;2022-10-16T18:36:46;26.33;;;10.47;;
18695;SDS011;22617;43.690;27.956;2022-10-16T18:41:54;28.23;;;10.00;;
18695;SDS011;22617;43.690;27.956;2022-10-16T18:47:00;20.93;;;8.73;;
18695;SDS011;22617;43.690;27.956;2022-10-16T18:52:05;27.77;;;10.40;;
18695;SDS011;22617;43.690;27.956;2022-10-16T18:57:09;22.60;;;9.27;;
18695;SDS011;22617;43.690;27.956;2022-10-16T19:02:12;28.07;;;10.23;;
18695;SDS011;22617;43.690;27.956;2022-10-16T19:07:18;24.93;;;8.93;;
18695;SDS011;22617;43.690;27.956;2022-10-16T19:12:21;18.87;;;7.43;;
18695;SDS011;22617;43.690;27.956;2022-10-16T19:17:25;20.60;;;7.47;;
18695;SDS011;22617;43.690;27.956;2022-10-16T19:22:30;18.90;;;6.10;;
18695;SDS011;22617;43.690;27.956;2022-10-16T19:27:52;20.53;;;6.70;;
18695;SDS011;22617;43.690;27.956;2022-10-16T19:32:57;17.80;;;7.00;;
18695;SDS011;22617;43.690;27.956;2022-10-16T19:38:02;18.57;;;6.33;;
18695;SDS011;22617;43.690;27.956;2022-10-16T19:43:05;19.10;;;6.20;;
18695;SDS011;22617;43.690;27.956;2022-10-16T19:48:09;20.20;;;6.20;;
18695;SDS011;22617;43.690;27.956;2022-10-16T19:53:14;13.30;;;5.90;;
18695;SDS011;22617;43.690;27.956;2022-10-16T19:58:17;12.60;;;5.43;;
18695;SDS011;22617;43.690;27.956;2022-10-16T20:03:21;9.87;;;4.57;;
18695;SDS011;22617;43.690;27.956;2022-10-16T20:08:26;11.83;;;5.10;;
18695;SDS011;22617;43.690;27.956;2022-10-16T20:13:29;12.40;;;5.13;;
18695;SDS011;22617;43.690;27.956;2022-10-16T20:18:39;11.77;;;5.20;;
18695;SDS011;22617;43.690;27.956;2022-10-16T20:23:44;7.97;;;4.77;;
18695;SDS011;22617;43.690;27.956;2022-10-16T20:28:49;11.83;;;5.67;;
18695;SDS011;22617;43.690;27.956;2022-10-16T20:33:54;12.00;;;5.67;;
18695;SDS011;22617;43.690;27.956;2022-10-16T20:39:00;12.30;;;5.60;;
18695;SDS011;22617;43.690;27.956;2022-10-16T20:44:04;13.83;;;5.30;;
18695;SDS011;22617;43.690;27.956;2022-10-16T20:49:07;9.43;;;5.43;;
18695;SDS011;22617;43.690;27.956;2022-10-16T20:54:29;10.63;;;5.30;;
18695;SDS011;22617;43.690;27.956;2022-10-16T20:59:33;9.40;;;4.97;;
18695;SDS011;22617;43.690;27.956;2022-10-16T21:04:37;10.00;;;5.20;;
18695;SDS011;22617;43.690;27.956;2022-10-16T21:09:42;9.40;;;5.23;;
18695;SDS011;22617;43.690;27.956;2022-10-16T21:14:45;7.63;;;4.57;;
18695;SDS011;22617;43.690;27.956;2022-10-16T21:20:09;8.80;;;4.80;;
18695;SDS011;22617;43.690;27.956;2022-10-16T21:25:14;7.13;;;4.40;;
18695;SDS011;22617;43.690;27.956;2022-10-16T21:30:17;9.17;;;5.27;;
18695;SDS011;22617;43.690;27.956;2022-10-16T21:35:21;9.67;;;4.63;;
18695;SDS011;22617;43.690;27.956;2022-10-16T21:40:27;12.80;;;6.10;;
18695;SDS011;22617;43.690;27.956;2022-10-16T21:45:31;11.13;;;5.27;;
18695;SDS011;22617;43.690;27.956;2022-10-16T21:50:35;11.97;;;4.77;;
18695;SDS011;22617;43.690;27.956;2022-10-16T21:55:40;11.73;;;5.43;;
18695;SDS011;22617;43.690;27.956;2022-10-16T22:00:44;12.90;;;5.40;;
18695;SDS011;22617;43.690;27.956;2022-10-16T22:05:47;8.83;;;5.07;;
18695;SDS011;22617;43.690;27.956;2022-10-16T22:10:52;11.80;;;5.83;;
18695;SDS011;22617;43.690;27.956;2022-10-16T22:15:55;20.47;;;7.60;;
18695;SDS011;22617;43.690;27.956;2022-10-16T22:20:59;14.80;;;7.20;;
18695;SDS011;22617;43.690;27.956;2022-10-16T22:26:04;19.27;;;8.23;;
18695;SDS011;22617;43.690;27.956;2022-10-16T22:31:11;26.47;;;10.07;;
18695;SDS011;22617;43.690;27.956;2022-10-16T22:36:15;17.33;;;8.80;;
18695;SDS011;22617;43.690;27.956;2022-10-16T22:41:20;20.27;;;9.13;;
18695;SDS011;22617;43.690;27.956;2022-10-16T22:46:26;15.97;;;6.93;;
18695;SDS011;22617;43.690;27.956;2022-10-16T22:51:32;10.57;;;6.07;;
18695;SDS011;22617;43.690;27.956;2022-10-16T22:56:37;10.47;;;6.30;;
18695;SDS011;22617;43.690;27.956;2022-10-16T23:01:41;9.07;;;4.83;;
18695;SDS011;22617;43.690;27.956;2022-10-16T23:06:44;10.73;;;4.93;;
18695;SDS011;22617;43.690;27.956;2022-10-16T23:11:49;10.30;;;5.33;;
18695;SDS011;22617;43.690;27.956;2022-10-16T23:16:53;11.43;;;5.40;;
18695;SDS011;22617;43.690;27.956;2022-10-16T23:21:56;11.23;;;6.10;;
18695;SDS011;22617;43.690;27.956;2022-10-16T23:27:01;11.83;;;6.03;;
18695;SDS011;22617;43.690;27.956;2022-10-16T23:32:05;10.87;;;5.20;;
18695;SDS011;22617;43.690;27.956;2022-10-16T23:37:09;8.70;;;5.27;;
18695;SDS011;22617;43.690;27.956;2022-10-16T23:42:14;15.17;;;6.00;;
18695;SDS011;22617;43.690;27.956;2022-10-16T23:47:17;9.80;;;5.97;;
18695;SDS011;22617;43.690;27.956;2022-10-16T23:52:21;10.60;;;6.67;;
18695;SDS011;22617;43.690;27.956;2022-10-16T23:57:25;12.83;;;6.43;;
